Time;durP1;ratioP1;P1;durP2;ratioP2;P2;SDS_P1;SDS_P2;PMS_P1;PMS_P2;Temp;Humidity;BMP_temperature;BMP_pressure;BME280_temperature;BME280_humidity;BME280_pressure;Samples;Min_cycle;Max_cycle;Signal;HPM_P1;HPM_P2
2023/01/08 00:01:17;;;;;;;85.65;30.52;;;;;;;9.37;59.69;99986.75;4334085;33;20111;-91
2023/01/08 00:03:43;;;;;;;76.50;28.08;;;;;;;9.35;59.70;99987.66;4320806;33;20147;-91
2023/01/08 00:06:11;;;;;;;73.75;28.35;;;;;;;9.36;59.70;99979.00;4297917;33;20108;-91
2023/01/08 00:08:36;;;;;;;86.72;28.75;;;;;;;9.46;59.70;99978.75;4297526;33;20115;-91
2023/01/08 00:11:02;;;;;;;69.80;27.92;;;;;;;9.45;59.70;99973.56;4309586;33;20187;-90
2023/01/08 00:13:27;;;;;;;68.82;28.58;;;;;;;9.33;59.69;99974.72;4321505;33;20096;-91
2023/01/08 00:15:53;;;;;;;71.53;28.95;;;;;;;9.32;59.69;99970.41;4321596;33;20096;-91
2023/01/08 00:18:18;;;;;;;68.85;29.05;;;;;;;9.29;59.69;99970.50;4309062;33;20522;-90
2023/01/08 00:20:44;;;;;;;72.37;29.00;;;;;;;9.27;59.70;99981.81;4315677;33;20146;-91
2023/01/08 00:23:13;;;;;;;71.60;27.27;;;;;;;9.29;59.69;99977.44;4304690;33;20114;-89
2023/01/08 00:25:39;;;;;;;78.18;30.37;;;;;;;9.29;59.70;99967.88;4307009;33;20184;-91
2023/01/08 00:28:04;;;;;;;74.97;29.60;;;;;;;9.19;59.68;99961.19;4321659;33;20442;-91
2023/01/08 00:30:30;;;;;;;69.68;26.70;;;;;;;9.22;59.69;99958.50;4297917;33;20123;-91
2023/01/08 00:32:55;;;;;;;67.35;27.10;;;;;;;9.10;59.68;99953.63;4308911;33;20133;-91
2023/01/08 00:35:21;;;;;;;73.70;27.67;;;;;;;9.13;59.68;99951.78;4311883;33;20116;-91
2023/01/08 00:37:48;;;;;;;80.10;29.87;;;;;;;9.18;59.68;99951.69;4321492;33;20127;-90
2023/01/08 00:40:13;;;;;;;68.97;27.95;;;;;;;8.87;59.66;99949.78;4308492;33;20052;-91
2023/01/08 00:42:39;;;;;;;68.43;26.48;;;;;;;9.11;59.68;99947.53;4303292;33;20395;-90
2023/01/08 00:45:05;;;;;;;72.30;26.48;;;;;;;9.17;59.68;99957.78;4320884;33;20463;-91
2023/01/08 00:47:30;;;;;;;68.37;27.33;;;;;;;9.17;59.68;99963.81;4312581;33;20172;-90
2023/01/08 00:49:56;;;;;;;64.78;25.95;;;;;;;9.19;59.68;99968.97;4320354;33;20131;-91
2023/01/08 00:52:21;;;;;;;72.10;26.05;;;;;;;9.30;59.69;99969.59;4309047;33;20144;-90
2023/01/08 00:54:47;;;;;;;78.05;28.90;;;;;;;9.20;59.69;99978.47;4321189;33;20120;-90
2023/01/08 00:57:12;;;;;;;78.60;27.65;;;;;;;9.12;59.67;99980.41;4311500;33;20126;-90
2023/01/08 00:59:37;;;;;;;68.78;26.15;;;;;;;9.15;59.68;99980.31;4318704;33;20167;-90
2023/01/08 01:02:03;;;;;;;66.78;26.12;;;;;;;9.14;59.68;99976.88;4318531;33;20113;-91
2023/01/08 01:04:29;;;;;;;70.43;27.10;;;;;;;9.25;59.69;99976.66;4321073;33;20116;-91
2023/01/08 01:06:54;;;;;;;71.97;27.40;;;;;;;9.34;59.70;99971.22;4325363;33;20107;-90
2023/01/08 01:09:20;;;;;;;68.35;25.83;;;;;;;9.27;59.69;99982.66;4308979;33;20100;-90
2023/01/08 01:11:45;;;;;;;69.85;25.95;;;;;;;9.21;59.69;99983.63;4320543;33;20197;-90
2023/01/08 01:14:11;;;;;;;71.80;26.87;;;;;;;9.29;59.69;99982.62;4293917;33;20188;-90
2023/01/08 01:16:36;;;;;;;63.03;25.52;;;;;;;9.07;59.68;99967.53;4301676;33;20111;-90
2023/01/08 01:19:01;;;;;;;62.60;26.30;;;;;;;9.19;59.68;99966.38;4308965;33;20155;-91
2023/01/08 01:21:29;;;;;;;64.85;26.27;;;;;;;8.94;59.67;99966.06;4320372;33;20178;-90
2023/01/08 01:23:55;;;;;;;62.42;26.05;;;;;;;9.14;59.68;99970.81;4307881;33;20108;-89
2023/01/08 01:26:21;;;;;;;73.37;28.15;;;;;;;9.06;59.68;99971.00;4319199;33;20126;-90
2023/01/08 01:28:47;;;;;;;67.22;25.12;;;;;;;9.02;59.67;99952.94;4322555;33;20100;-89
2023/01/08 01:31:13;;;;;;;62.28;24.77;;;;;;;9.10;59.68;99951.03;4318551;33;20158;-90
2023/01/08 01:33:42;;;;;;;70.78;26.20;;;;;;;8.96;59.67;99953.06;4302434;33;20124;-90
2023/01/08 01:36:08;;;;;;;67.10;25.37;;;;;;;8.98;59.68;99951.28;4314737;33;20148;-88
2023/01/08 01:38:34;;;;;;;72.62;26.23;;;;;;;8.97;59.68;99953.03;4309356;33;20114;-91
2023/01/08 01:40:59;;;;;;;74.03;26.40;;;;;;;9.06;59.68;99950.25;4322778;33;20103;-92
2023/01/08 01:43:51;;;;;;;62.65;27.77;;;;;;;9.09;59.68;99938.94;4319568;33;20140;-91
2023/01/08 01:46:23;;;;;;;60.58;25.27;;;;;;;9.00;59.68;99929.62;4318416;33;20077;-90
2023/01/08 01:48:50;;;;;;;58.92;26.60;;;;;;;8.89;59.68;99937.63;4334279;33;20099;-91
2023/01/08 01:51:16;;;;;;;63.22;26.12;;;;;;;8.83;59.67;99929.97;4301085;33;20107;-91
2023/01/08 01:53:41;;;;;;;70.05;26.92;;;;;;;8.88;59.66;99929.88;4325714;33;20119;-91
2023/01/08 01:56:07;;;;;;;63.87;27.05;;;;;;;8.91;59.68;99930.66;4322235;33;20108;-91
2023/01/08 01:58:32;;;;;;;61.17;26.87;;;;;;;8.93;59.67;99920.22;4320420;33;20127;-91
2023/01/08 02:01:01;;;;;;;66.55;27.00;;;;;;;8.83;59.67;99911.81;4319836;33;20103;-91
2023/01/08 02:03:29;;;;;;;61.55;26.85;;;;;;;8.96;59.67;99904.59;4319982;33;20171;-91
2023/01/08 02:06:10;;;;;;;63.58;25.67;;;;;;;9.03;59.68;99906.16;4322474;33;20107;-91
2023/01/08 02:08:41;;;;;;;57.00;25.85;;;;;;;8.98;59.68;99908.00;4334352;33;20169;-91
2023/01/08 02:11:09;;;;;;;64.75;26.67;;;;;;;8.87;59.67;99903.06;4326227;33;20159;-90
2023/01/08 02:13:39;;;;;;;63.78;26.15;;;;;;;8.88;59.66;99896.97;4310518;33;20126;-91
2023/01/08 02:16:11;;;;;;;;;;;;;;;8.90;59.67;99895.19;4303590;33;20102;-92
2023/01/08 02:18:47;;;;;;;58.72;25.35;;;;;;;8.87;59.66;99891.81;4333898;33;20094;-91
2023/01/08 02:21:33;;;;;;;68.30;26.58;;;;;;;8.78;59.66;99900.69;4310502;33;20158;-91
2023/01/08 02:24:32;;;;;;;62.70;25.77;;;;;;;8.74;59.66;99891.22;4334836;33;20134;-91
2023/01/08 02:26:57;;;;;;;60.15;24.52;;;;;;;8.80;59.66;99891.12;4315864;33;20091;-91
2023/01/08 02:29:24;;;;;;;62.28;26.05;;;;;;;8.72;59.66;99887.81;4322760;33;20092;-91
2023/01/08 02:31:49;;;;;;;59.55;26.50;;;;;;;8.73;59.66;99876.56;4310152;33;20092;-92
2023/01/08 02:34:14;;;;;;;56.40;25.05;;;;;;;8.75;59.67;99886.91;4309612;33;20441;-92
2023/01/08 02:36:50;;;;;;;61.72;25.92;;;;;;;8.70;59.66;99875.78;4310565;33;20134;-91
2023/01/08 02:39:34;;;;;;;57.53;25.60;;;;;;;8.70;59.66;99880.97;4334986;33;20146;-92
2023/01/08 02:42:20;;;;;;;62.67;25.40;;;;;;;8.72;59.66;99874.84;4326403;33;20457;-91
2023/01/08 02:45:06;;;;;;;59.05;25.00;;;;;;;8.70;59.66;99879.22;4334877;33;20142;-91
2023/01/08 02:47:31;;;;;;;63.78;27.50;;;;;;;8.63;59.66;99877.66;4335045;33;20134;-91
2023/01/08 02:50:24;;;;;;;58.85;24.70;;;;;;;8.62;59.66;99878.53;4334918;33;20119;-90
2023/01/08 02:52:57;;;;;;;56.05;25.08;;;;;;;8.63;59.66;99871.63;4319166;33;20115;-91
2023/01/08 02:55:23;;;;;;;53.13;23.75;;;;;;;8.56;59.65;99879.53;4320079;33;20132;-91
2023/01/08 02:57:48;;;;;;;55.40;24.20;;;;;;;8.74;59.66;99875.66;4310334;33;21006;-90
2023/01/08 03:00:14;;;;;;;58.85;24.23;;;;;;;8.59;59.66;99868.25;4316554;33;20718;-91
2023/01/08 03:02:39;;;;;;;59.03;25.75;;;;;;;8.68;59.66;99869.75;4322464;33;20134;-91
2023/01/08 03:05:09;;;;;;;52.97;24.30;;;;;;;8.57;59.65;99870.87;4322383;33;20457;-91
2023/01/08 03:07:34;;;;;;;56.13;24.50;;;;;;;8.52;59.65;99872.72;4320467;33;20116;-91
2023/01/08 03:09:59;;;;;;;53.42;23.75;;;;;;;8.70;59.66;99870.56;4307819;33;20253;-90
2023/01/08 03:12:35;;;;;;;54.78;23.95;;;;;;;8.80;59.66;99870.34;4307455;33;20104;-91
2023/01/08 03:15:05;;;;;;;59.55;24.55;;;;;;;8.70;59.66;99865.38;4316160;33;20100;-90
2023/01/08 03:17:35;;;;;;;56.65;24.90;;;;;;;8.66;59.66;99866.34;4316257;33;20123;-91
2023/01/08 03:20:09;;;;;;;55.55;24.08;;;;;;;8.85;59.67;99865.06;4306929;33;20092;-91
2023/01/08 03:22:36;;;;;;;58.22;24.35;;;;;;;8.74;59.67;99854.91;4320178;33;20095;-90
2023/01/08 03:25:01;;;;;;;58.40;24.52;;;;;;;8.79;59.66;99854.81;4309789;33;20096;-91
2023/01/08 03:27:28;;;;;;;52.33;23.67;;;;;;;8.85;59.67;99868.50;4320069;33;20489;-92
2023/01/08 03:29:54;;;;;;;55.60;24.83;;;;;;;8.93;59.67;99856.19;4322374;33;20667;-91
2023/01/08 03:32:19;;;;;;;52.50;22.60;;;;;;;8.75;59.66;99858.34;4322154;33;20095;-92
2023/01/08 03:34:46;;;;;;;56.40;24.92;;;;;;;8.84;59.67;99851.22;4322341;33;20171;-92
2023/01/08 03:37:12;;;;;;;52.65;23.10;;;;;;;8.92;59.67;99854.47;4309606;33;20482;-92
2023/01/08 03:39:53;;;;;;;62.22;25.23;;;;;;;8.96;59.67;99857.00;4322631;33;20127;-93
2023/01/08 03:42:19;;;;;;;57.60;24.23;;;;;;;9.07;59.68;99858.47;4326382;33;20117;-94
2023/01/08 03:44:44;;;;;;;52.60;24.70;;;;;;;8.94;59.67;99857.03;4309270;33;20123;-92
2023/01/08 03:47:10;;;;;;;54.95;22.48;;;;;;;8.67;59.66;99855.09;4322088;33;20115;-92
2023/01/08 03:49:35;;;;;;;60.63;25.17;;;;;;;8.81;59.66;99851.28;4312502;33;20135;-92
2023/01/08 03:52:01;;;;;;;59.50;25.23;;;;;;;8.89;59.67;99841.56;4322035;33;20174;-92
2023/01/08 03:54:30;;;;;;;57.97;24.23;;;;;;;8.98;59.68;99842.25;4312134;33;20124;-92
2023/01/08 03:56:55;;;;;;;59.42;24.33;;;;;;;9.00;59.67;99843.09;4319658;33;20178;-92
2023/01/08 03:59:21;;;;;;;57.95;24.27;;;;;;;8.99;59.67;99839.63;4319832;33;20112;-91
2023/01/08 04:01:46;;;;;;;57.55;24.63;;;;;;;9.08;59.68;99838.53;4319769;33;20122;-91
2023/01/08 04:04:12;;;;;;;57.78;24.55;;;;;;;9.03;59.67;99835.22;4318446;33;20123;-92
2023/01/08 04:06:37;;;;;;;59.00;24.95;;;;;;;8.93;59.67;99830.22;4315983;33;20111;-91
2023/01/08 04:09:03;;;;;;;59.85;25.23;;;;;;;8.89;59.68;99838.97;4308835;33;20140;-93
2023/01/08 04:11:28;;;;;;;50.33;23.17;;;;;;;8.82;59.67;99847.81;4315740;33;20103;-91
2023/01/08 04:13:54;;;;;;;55.12;24.20;;;;;;;9.06;59.68;99840.31;4321984;33;20135;-90
2023/01/08 04:16:20;;;;;;;55.83;24.23;;;;;;;8.97;59.67;99832.75;4321918;33;20116;-90
2023/01/08 04:18:45;;;;;;;58.13;24.73;;;;;;;9.14;59.69;99839.25;4321830;33;20139;-90
2023/01/08 04:21:10;;;;;;;59.25;24.17;;;;;;;9.08;59.68;99839.41;4313117;33;20132;-90
2023/01/08 04:23:36;;;;;;;54.33;24.42;;;;;;;8.97;59.68;99836.19;4306234;33;20172;-91
2023/01/08 04:26:05;;;;;;;62.47;25.33;;;;;;;8.94;59.67;99836.28;4316493;33;20163;-90
2023/01/08 04:28:31;;;;;;;57.47;23.75;;;;;;;8.76;59.66;99834.97;4304990;33;20104;-91
2023/01/08 04:30:56;;;;;;;67.65;24.52;;;;;;;8.69;59.66;99836.00;4316292;33;20468;-90
2023/01/08 04:33:21;;;;;;;62.58;25.75;;;;;;;8.91;59.67;99823.38;4321204;33;20171;-88
2023/01/08 04:35:47;;;;;;;55.12;24.60;;;;;;;8.83;59.67;99825.31;4315525;33;20155;-90
2023/01/08 04:38:12;;;;;;;62.35;26.58;;;;;;;8.79;59.66;99827.13;4304512;33;20487;-91
2023/01/08 04:40:38;;;;;;;54.40;24.20;;;;;;;8.88;59.67;99831.22;4307268;33;20374;-91
2023/01/08 04:43:03;;;;;;;59.38;26.52;;;;;;;8.95;59.67;99837.97;4305826;33;20505;-90
2023/01/08 04:45:28;;;;;;;64.75;26.62;;;;;;;8.97;59.67;99835.34;4315427;33;20470;-91
2023/01/08 04:47:55;;;;;;;65.60;25.17;;;;;;;8.76;59.66;99842.78;4306053;33;20459;-90
2023/01/08 04:50:21;;;;;;;63.67;24.83;;;;;;;8.77;59.66;99839.28;4333781;33;20947;-90
2023/01/08 04:52:46;;;;;;;57.90;24.73;;;;;;;8.69;59.66;99836.00;4309857;33;20138;-90
2023/01/08 04:55:12;;;;;;;64.40;24.40;;;;;;;8.56;59.65;99834.59;4314004;33;20111;-90
2023/01/08 04:57:37;;;;;;;67.80;26.40;;;;;;;8.73;59.66;99839.38;4325171;33;20121;-90
2023/01/08 05:00:03;;;;;;;68.55;24.80;;;;;;;8.77;59.66;99851.41;4316130;33;20130;-90
2023/01/08 05:02:28;;;;;;;55.92;23.35;;;;;;;8.80;59.66;99831.44;4308621;33;20569;-91
2023/01/08 05:04:54;;;;;;;64.53;25.17;;;;;;;8.70;59.66;99836.84;4323394;33;20170;-90
2023/01/08 05:07:19;;;;;;;62.13;24.85;;;;;;;8.83;59.67;99841.72;4323148;33;20155;-90
2023/01/08 05:09:44;;;;;;;57.70;24.12;;;;;;;8.77;59.66;99839.28;4315623;33;20474;-88
2023/01/08 05:12:10;;;;;;;63.08;24.92;;;;;;;8.87;59.66;99835.56;4308253;33;20515;-90
2023/01/08 05:14:35;;;;;;;62.85;25.37;;;;;;;8.98;59.68;99832.69;4301659;33;20470;-90
2023/01/08 05:17:01;;;;;;;66.12;26.23;;;;;;;8.82;59.67;99824.44;4308967;33;20171;-90
2023/01/08 05:19:26;;;;;;;55.33;23.10;;;;;;;8.74;59.67;99818.56;4317600;33;20107;-90
2023/01/08 05:21:52;;;;;;;55.50;24.15;;;;;;;8.71;59.66;99817.78;4310598;33;20104;-88
2023/01/08 05:24:17;;;;;;;64.18;24.08;;;;;;;8.76;59.66;99816.81;4323153;33;20115;-90
2023/01/08 05:26:42;;;;;;;64.75;25.40;;;;;;;8.77;59.67;99823.72;4313480;33;20175;-89
2023/01/08 05:29:09;;;;;;;61.88;24.85;;;;;;;8.63;59.65;99814.53;4323117;33;20151;-93
2023/01/08 05:31:34;;;;;;;66.45;25.15;;;;;;;8.64;59.66;99822.28;4310882;33;20196;-92
2023/01/08 05:33:59;;;;;;;62.97;24.95;;;;;;;8.71;59.66;99812.59;4307387;33;20147;-92
2023/01/08 05:36:25;;;;;;;59.42;24.40;;;;;;;8.68;59.66;99816.13;4322547;33;20365;-93
2023/01/08 05:38:50;;;;;;;64.47;25.48;;;;;;;8.63;59.66;99811.94;4317757;33;20280;-92
2023/01/08 05:41:16;;;;;;;62.45;25.25;;;;;;;8.55;59.65;99814.72;4330472;33;20135;-91
2023/01/08 05:43:41;;;;;;;67.37;26.40;;;;;;;8.45;59.65;99829.62;4313599;33;20382;-91
2023/01/08 05:46:07;;;;;;;54.38;24.63;;;;;;;8.52;59.66;99812.19;4323179;33;20430;-92
2023/01/08 05:48:33;;;;;;;61.03;24.55;;;;;;;8.41;59.65;99814.16;4323132;33;20139;-91
2023/01/08 05:50:58;;;;;;;61.78;26.15;;;;;;;8.42;59.64;99810.69;4312811;33;20171;-92
2023/01/08 05:53:23;;;;;;;70.68;30.60;;;;;;;8.54;59.65;99810.41;4316159;33;20141;-92
2023/01/08 05:55:49;;;;;;;61.40;26.12;;;;;;;8.47;59.65;99811.41;4305516;33;20172;-91
2023/01/08 05:58:17;;;;;;;121.47;66.50;;;;;;;8.41;59.64;99803.78;4316677;33;20155;-92
2023/01/08 06:00:43;;;;;;;56.37;24.52;;;;;;;8.42;59.64;99805.50;4308361;33;20112;-91
2023/01/08 06:03:08;;;;;;;66.82;31.85;;;;;;;8.46;59.65;99802.78;4315012;33;20133;-88
2023/01/08 06:05:34;;;;;;;60.80;25.30;;;;;;;8.37;59.64;99796.97;4311974;33;20175;-92
2023/01/08 06:08:00;;;;;;;58.33;24.05;;;;;;;8.41;59.64;99796.84;4308450;33;20202;-91
2023/01/08 06:10:25;;;;;;;54.55;24.58;;;;;;;8.43;59.64;99786.44;4307763;33;20171;-91
2023/01/08 06:12:50;;;;;;;53.03;23.67;;;;;;;8.31;59.64;99787.56;4316184;33;20396;-91
2023/01/08 06:15:16;;;;;;;50.33;24.55;;;;;;;8.31;59.64;99788.41;4319439;33;20126;-91
2023/01/08 06:17:42;;;;;;;55.70;22.85;;;;;;;8.35;59.63;99791.81;4315739;33;20126;-90
2023/01/08 06:20:07;;;;;;;57.30;23.08;;;;;;;8.42;59.64;99784.75;4319870;33;20513;-91
2023/01/08 06:22:33;;;;;;;61.22;24.25;;;;;;;8.51;59.64;99785.38;4335216;33;20154;-91
2023/01/08 06:24:59;;;;;;;63.67;28.15;;;;;;;8.40;59.64;99782.19;4312838;33;20442;-91
2023/01/08 06:27:24;;;;;;;85.07;44.45;;;;;;;8.46;59.65;99789.81;4310506;33;20117;-91
2023/01/08 06:29:49;;;;;;;52.53;25.67;;;;;;;8.35;59.64;99780.59;4322445;33;20123;-90
2023/01/08 06:32:15;;;;;;;55.60;25.70;;;;;;;8.26;59.64;99782.44;4334418;33;20512;-90
2023/01/08 06:34:40;;;;;;;51.92;23.65;;;;;;;8.39;59.64;99782.22;4313454;33;20139;-91
2023/01/08 06:37:06;;;;;;;54.85;22.52;;;;;;;8.42;59.64;99783.00;4321667;33;20099;-91
2023/01/08 06:39:31;;;;;;;57.22;25.20;;;;;;;8.34;59.64;99786.66;4322908;33;20187;-90
2023/01/08 06:41:57;;;;;;;63.22;25.85;;;;;;;8.32;59.64;99784.94;4322773;33;20104;-91
2023/01/08 06:44:22;;;;;;;58.22;23.48;;;;;;;8.43;59.64;99783.84;4325583;33;20211;-90
2023/01/08 06:46:48;;;;;;;58.25;23.60;;;;;;;8.41;59.64;99776.09;4332184;33;20116;-89
2023/01/08 06:49:13;;;;;;;61.35;23.58;;;;;;;8.23;59.64;99782.50;4321897;33;20104;-88
2023/01/08 06:51:39;;;;;;;56.22;22.98;;;;;;;8.26;59.64;99785.03;4320322;33;20112;-89
2023/01/08 06:54:04;;;;;;;55.40;23.15;;;;;;;8.42;59.64;99783.00;4334125;33;20120;-91
2023/01/08 06:56:30;;;;;;;51.03;22.42;;;;;;;8.50;59.64;99780.22;4310705;33;20135;-92
2023/01/08 06:58:55;;;;;;;55.05;23.98;;;;;;;8.40;59.64;99787.37;4322494;33;20116;-91
2023/01/08 07:01:21;;;;;;;56.05;23.17;;;;;;;8.50;59.64;99782.81;4317251;33;20165;-91
2023/01/08 07:03:47;;;;;;;60.88;24.27;;;;;;;8.42;59.64;99785.59;4316800;33;20114;-90
2023/01/08 07:06:17;;;;;;;56.17;24.92;;;;;;;8.29;59.63;99790.19;4316893;33;20104;-90
2023/01/08 07:08:51;;;;;;;63.47;25.10;;;;;;;8.47;59.65;99780.28;4306836;33;20096;-94
2023/01/08 07:11:17;;;;;;;51.53;23.30;;;;;;;8.35;59.64;99778.84;4320052;33;20088;-91
2023/01/08 07:13:42;;;;;;;53.90;23.52;;;;;;;8.43;59.64;99784.69;4321968;33;20158;-91
2023/01/08 07:16:09;;;;;;;53.95;23.50;;;;;;;8.45;59.65;99789.84;4322114;33;20119;-90
2023/01/08 07:18:35;;;;;;;55.33;23.60;;;;;;;8.49;59.64;99787.16;4321804;33;20115;-91
2023/01/08 07:21:01;;;;;;;56.20;23.83;;;;;;;8.66;59.65;99780.72;4314372;33;20084;-92
2023/01/08 07:23:27;;;;;;;56.33;24.12;;;;;;;8.48;59.65;99782.00;4308474;33;20092;-91
2023/01/08 07:25:52;;;;;;;52.75;23.98;;;;;;;8.50;59.65;99775.03;4314884;33;20092;-91
2023/01/08 07:28:18;;;;;;;55.25;23.15;;;;;;;8.50;59.65;99780.22;4320319;33;20127;-91
2023/01/08 07:30:43;;;;;;;63.30;24.58;;;;;;;8.53;59.66;99773.25;4322283;33;20475;-92
2023/01/08 07:33:09;;;;;;;55.65;24.48;;;;;;;8.52;59.64;99768.09;4312563;33;20092;-91
2023/01/08 07:35:35;;;;;;;61.45;24.63;;;;;;;8.54;59.65;99764.56;4309934;33;20147;-91
2023/01/08 07:38:01;;;;;;;55.15;24.75;;;;;;;8.55;59.65;99765.41;4334162;33;20112;-91
2023/01/08 07:40:26;;;;;;;60.42;26.00;;;;;;;8.41;59.64;99776.09;4308649;33;20104;-91
2023/01/08 07:42:59;;;;;;;48.45;23.42;;;;;;;8.40;59.64;99768.34;4320058;33;20103;-91
2023/01/08 07:45:26;;;;;;;61.13;26.50;;;;;;;8.38;59.65;99780.50;4304034;33;20156;-91
2023/01/08 07:47:51;;;;;;;65.65;26.90;;;;;;;8.57;59.65;99772.28;4306333;33;20685;-91
2023/01/08 07:50:16;;;;;;;51.42;23.92;;;;;;;8.28;59.63;99766.84;4322396;33;20135;-91
2023/01/08 07:52:42;;;;;;;58.20;25.85;;;;;;;8.29;59.63;99769.44;4312724;33;20501;-92
2023/01/08 07:55:08;;;;;;;55.65;25.02;;;;;;;8.53;59.66;99762.00;4315767;33;20467;-88
2023/01/08 07:57:33;;;;;;;53.38;24.73;;;;;;;8.50;59.65;99757.72;4304136;33;20154;-93
2023/01/08 07:59:59;;;;;;;56.47;24.95;;;;;;;8.61;59.65;99760.94;4314559;33;20139;-92
2023/01/08 08:02:24;;;;;;;55.80;24.67;;;;;;;8.53;59.65;99757.69;4319879;33;20147;-92
2023/01/08 08:04:50;;;;;;;55.38;24.50;;;;;;;8.53;59.65;99755.09;4314437;33;20171;-92
2023/01/08 08:07:15;;;;;;;54.90;24.92;;;;;;;8.41;59.64;99763.13;4321698;33;20139;-91
2023/01/08 08:09:41;;;;;;;54.47;23.80;;;;;;;8.48;59.64;99750.88;4321871;33;20199;-92
2023/01/08 08:12:07;;;;;;;58.05;26.67;;;;;;;8.52;59.66;99755.13;4309971;33;20335;-93
2023/01/08 08:14:32;;;;;;;54.13;23.73;;;;;;;8.59;59.66;99754.94;4307383;33;20159;-91
2023/01/08 08:16:59;;;;;;;54.58;23.20;;;;;;;8.57;59.65;99748.06;4307580;33;20164;-91
2023/01/08 08:19:24;;;;;;;55.72;24.65;;;;;;;8.56;59.65;99748.97;4316245;33;20112;-91
2023/01/08 08:21:50;;;;;;;57.65;26.15;;;;;;;8.58;59.65;99739.41;4318130;33;20120;-90
2023/01/08 08:24:15;;;;;;;49.63;23.90;;;;;;;8.52;59.64;99734.37;4302735;33;20080;-92
2023/01/08 08:26:41;;;;;;;53.53;24.60;;;;;;;8.49;59.64;99740.44;4321872;33;20133;-91
2023/01/08 08:29:06;;;;;;;51.63;24.40;;;;;;;8.67;59.66;99727.94;4313522;33;20076;-91
2023/01/08 08:31:32;;;;;;;50.40;22.15;;;;;;;8.73;59.66;99730.38;4317742;33;20717;-92
2023/01/08 08:33:57;;;;;;;51.47;22.13;;;;;;;8.67;59.66;99713.22;4323191;33;20115;-91
2023/01/08 08:36:27;;;;;;;47.88;22.20;;;;;;;8.65;59.66;99729.72;4322908;33;20509;-91
2023/01/08 08:38:53;;;;;;;45.03;22.48;;;;;;;8.53;59.66;99725.69;4302061;33;20123;-90
2023/01/08 08:41:18;;;;;;;42.05;22.62;;;;;;;8.54;59.65;99730.84;4311281;33;20143;-92
2023/01/08 08:43:44;;;;;;;49.38;21.02;;;;;;;8.47;59.64;99726.66;4335292;33;20100;-91
2023/01/08 08:46:10;;;;;;;48.78;22.98;;;;;;;8.42;59.64;99725.06;4322941;33;20104;-89
2023/01/08 08:48:35;;;;;;;51.88;23.08;;;;;;;8.55;59.65;99716.12;4317659;33;20142;-91
2023/01/08 08:51:04;;;;;;;41.25;20.80;;;;;;;8.61;59.66;99718.56;4318985;33;20187;-91
2023/01/08 08:53:29;;;;;;;40.12;21.23;;;;;;;8.75;59.66;99713.88;4318720;33;20457;-91
2023/01/08 08:55:57;;;;;;;48.67;20.90;;;;;;;8.76;59.67;99717.34;4309495;33;20146;-89
2023/01/08 08:58:22;;;;;;;42.05;21.87;;;;;;;8.69;59.66;99703.66;4322825;33;20115;-90
2023/01/08 09:00:48;;;;;;;43.92;20.60;;;;;;;8.81;59.66;99705.09;4320913;33;20130;-91
2023/01/08 09:03:14;;;;;;;39.83;20.10;;;;;;;8.75;59.66;99710.41;4315089;33;20112;-91
2023/01/08 09:05:39;;;;;;;42.28;20.40;;;;;;;8.80;59.66;99709.44;4323249;33;20139;-92
2023/01/08 09:08:05;;;;;;;40.42;21.02;;;;;;;8.75;59.67;99705.22;4323285;33;20191;-91
2023/01/08 09:10:30;;;;;;;42.55;20.73;;;;;;;8.72;59.66;99698.38;4322495;33;20095;-92
2023/01/08 09:12:56;;;;;;;39.70;21.48;;;;;;;8.77;59.66;99700.88;4323319;33;20107;-91
2023/01/08 09:15:21;;;;;;;40.20;20.55;;;;;;;8.71;59.66;99701.88;4320340;33;20178;-91
2023/01/08 09:17:54;;;;;;;41.13;20.05;;;;;;;8.73;59.65;99694.88;4315981;33;20111;-90
2023/01/08 09:20:19;;;;;;;43.80;22.33;;;;;;;8.82;59.67;99699.88;4310437;33;20168;-89
2023/01/08 09:22:45;;;;;;;39.05;19.30;;;;;;;9.10;59.68;99699.13;4329307;33;20410;-90
2023/01/08 09:25:16;;;;;;;43.42;20.58;;;;;;;9.07;59.68;99692.28;4324027;33;20166;-89
2023/01/08 09:27:41;;;;;;;39.42;18.58;;;;;;;9.02;59.68;99696.75;4306914;33;20108;-91
2023/01/08 09:30:07;;;;;;;40.80;18.87;;;;;;;9.23;59.69;99695.34;4310762;33;20133;-92
2023/01/08 09:32:33;;;;;;;39.55;19.42;;;;;;;9.33;59.69;99682.94;4326131;33;20170;-92
2023/01/08 09:34:58;;;;;;;45.63;19.83;;;;;;;9.38;59.69;99688.84;4312393;33;20182;-91
2023/01/08 09:37:24;;;;;;;38.17;18.20;;;;;;;8.96;59.67;99683.91;4311599;33;20108;-93
2023/01/08 09:39:49;;;;;;;37.00;18.48;;;;;;;9.47;59.70;99670.41;4325655;33;20151;-92
2023/01/08 09:42:15;;;;;;;39.28;19.02;;;;;;;9.62;59.71;99671.69;4311114;33;20108;-91
2023/01/08 09:44:42;;;;;;;36.05;17.65;;;;;;;9.59;59.71;99666.59;4321423;33;20108;-91
2023/01/08 09:47:25;;;;;;;33.47;17.67;;;;;;;9.65;59.72;99664.66;4302713;33;20108;-91
2023/01/08 09:49:51;;;;;;;36.70;18.77;;;;;;;9.74;59.72;99646.22;4322677;33;20119;-91
2023/01/08 09:52:17;;;;;;;35.88;18.00;;;;;;;9.97;59.73;99648.09;4312826;33;20435;-91
2023/01/08 09:54:43;;;;;;;32.53;17.17;;;;;;;9.98;59.73;99647.22;4317818;33;20112;-90
2023/01/08 09:57:16;;;;;;;33.92;17.83;;;;;;;9.96;59.73;99630.81;4304921;33;20116;-89
2023/01/08 09:59:42;;;;;;;37.30;19.30;;;;;;;9.93;59.72;99630.88;4301571;33;20094;-91
2023/01/08 10:02:19;;;;;;;35.47;17.85;;;;;;;9.97;59.73;99624.69;4322435;33;20130;-92
2023/01/08 10:04:45;;;;;;;38.67;19.00;;;;;;;9.82;59.72;99625.16;4320169;33;20072;-92
2023/01/08 10:07:20;;;;;;;34.08;17.90;;;;;;;9.91;59.73;99616.22;4321926;33;20120;-91
2023/01/08 10:09:47;;;;;;;33.72;17.42;;;;;;;9.94;59.73;99613.56;4320446;33;20121;-92
2023/01/08 10:12:12;;;;;;;34.60;18.17;;;;;;;10.05;59.73;99614.03;4334889;33;20122;-91
2023/01/08 10:14:38;;;;;;;33.47;17.50;;;;;;;10.05;59.74;99601.03;4326806;33;20112;-89
2023/01/08 10:17:33;;;;;;;32.55;18.08;;;;;;;9.99;59.73;99601.25;4308679;33;20163;-92
2023/01/08 10:19:58;;;;;;;30.08;16.33;;;;;;;10.24;59.75;99602.19;4322381;33;20099;-92
2023/01/08 10:22:24;;;;;;;32.65;17.77;;;;;;;10.29;59.75;99586.41;4322401;33;20167;-91
2023/01/08 10:24:50;;;;;;;33.80;17.40;;;;;;;10.20;59.74;99589.31;4311329;33;20108;-91
2023/01/08 10:27:21;;;;;;;31.25;17.92;;;;;;;10.47;59.76;99591.00;4315024;33;20135;-92
2023/01/08 10:29:48;;;;;;;33.53;17.60;;;;;;;10.64;59.77;99582.59;4322271;33;20457;-93
2023/01/08 10:32:16;;;;;;;34.78;16.52;;;;;;;10.80;59.77;99578.56;4310280;33;20219;-91
2023/01/08 10:34:45;;;;;;;25.27;15.25;;;;;;;10.73;59.77;99585.75;4310215;33;20107;-92
2023/01/08 10:37:34;;;;;;;29.52;16.33;;;;;;;10.68;59.77;99584.22;4324762;33;20119;-92
2023/01/08 10:40:18;;;;;;;27.00;16.00;;;;;;;10.82;59.77;99579.34;4322224;33;20092;-92
2023/01/08 10:42:43;;;;;;;29.77;16.62;;;;;;;10.73;59.77;99570.12;4309946;33;20146;-92
2023/01/08 10:45:23;;;;;;;28.60;14.85;;;;;;;10.89;59.78;99560.03;4312263;33;20410;-91
2023/01/08 10:47:50;;;;;;;27.90;15.75;;;;;;;10.97;59.78;99557.97;4320138;33;20132;-92
2023/01/08 10:50:28;;;;;;;29.30;16.37;;;;;;;11.03;59.79;99559.50;4319313;33;20169;-91
2023/01/08 10:52:56;;;;;;;29.25;15.98;;;;;;;10.99;59.79;99552.72;4321982;33;20126;-92
2023/01/08 10:55:27;;;;;;;29.58;14.40;;;;;;;11.19;59.80;99539.81;4309298;33;20098;-92
2023/01/08 10:57:54;;;;;;;27.55;15.52;;;;;;;11.27;59.80;99542.94;4330407;33;20175;-91
2023/01/08 11:00:38;;;;;;;29.80;15.80;;;;;;;11.37;59.80;99538.25;4304569;33;20055;-92
2023/01/08 11:03:05;;;;;;;29.27;16.58;;;;;;;11.12;59.79;99543.56;4322364;33;20123;-91
2023/01/08 11:05:37;;;;;;;27.95;18.10;;;;;;;11.24;59.80;99537.88;4322036;33;20068;-90
2023/01/08 11:08:11;;;;;;;31.20;17.42;;;;;;;11.29;59.79;99530.72;4325723;33;20817;-91
2023/01/08 11:10:37;;;;;;;43.30;22.35;;;;;;;11.19;59.79;99531.13;4321627;33;20163;-91
2023/01/08 11:13:04;;;;;;;27.02;16.25;;;;;;;11.10;59.79;99529.72;4319272;33;20143;-90
2023/01/08 11:15:37;;;;;;;32.25;19.05;;;;;;;11.28;59.80;99521.19;4322559;33;20107;-91
2023/01/08 11:18:09;;;;;;;36.10;16.83;;;;;;;11.11;59.79;99520.97;4327055;33;20465;-94
2023/01/08 11:20:38;;;;;;;33.25;19.73;;;;;;;11.17;59.79;99505.16;4312765;33;20122;-92
2023/01/08 11:23:05;;;;;;;39.50;22.45;;;;;;;11.18;59.79;99506.00;4307896;33;20155;-94
2023/01/08 11:25:31;;;;;;;30.83;17.30;;;;;;;11.14;59.79;99501.81;4310093;33;20131;-91